sensor_id;sensor_type;location;lat;lon;timestamp;P1;durP1;ratioP1;P2;durP2;ratioP2
34978;SDS011;21185;50.978;13.720;2022-09-14T00:01:35;3.83;;;2.30;;
34978;SDS011;21185;50.978;13.720;2022-09-14T00:06:39;2.97;;;1.80;;
34978;SDS011;21185;50.978;13.720;2022-09-14T00:11:42;4.35;;;2.08;;
34978;SDS011;21185;50.978;13.720;2022-09-14T00:16:44;5.22;;;1.83;;
34978;SDS011;21185;50.978;13.720;2022-09-14T00:21:49;4.45;;;2.10;;
34978;SDS011;21185;50.978;13.720;2022-09-14T00:26:52;5.65;;;2.55;;
34978;SDS011;21185;50.978;13.720;2022-09-14T00:31:54;9.23;;;2.28;;
34978;SDS011;21185;50.978;13.720;2022-09-14T00:36:57;3.15;;;1.95;;
34978;SDS011;21185;50.978;13.720;2022-09-14T00:41:59;3.97;;;2.28;;
34978;SDS011;21185;50.978;13.720;2022-09-14T00:47:00;7.85;;;2.85;;
34978;SDS011;21185;50.978;13.720;2022-09-14T00:57:14;7.85;;;2.42;;
34978;SDS011;21185;50.978;13.720;2022-09-14T01:02:18;4.40;;;2.40;;
34978;SDS011;21185;50.978;13.720;2022-09-14T01:12:48;3.53;;;1.98;;
34978;SDS011;21185;50.978;13.720;2022-09-14T01:18:28;3.70;;;2.13;;
34978;SDS011;21185;50.978;13.720;2022-09-14T01:29:26;4.57;;;2.63;;
34978;SDS011;21185;50.978;13.720;2022-09-14T01:34:43;6.00;;;2.55;;
34978;SDS011;21185;50.978;13.720;2022-09-14T01:39:53;4.40;;;2.63;;
34978;SDS011;21185;50.978;13.720;2022-09-14T01:45:09;3.53;;;2.45;;
34978;SDS011;21185;50.978;13.720;2022-09-14T01:50:25;4.60;;;2.80;;
34978;SDS011;21185;50.978;13.720;2022-09-14T02:00:54;5.30;;;2.78;;
34978;SDS011;21185;50.978;13.720;2022-09-14T02:05:59;3.85;;;2.17;;
34978;SDS011;21185;50.978;13.720;2022-09-14T02:11:11;4.13;;;2.60;;
34978;SDS011;21185;50.978;13.720;2022-09-14T02:16:13;7.28;;;2.13;;
34978;SDS011;21185;50.978;13.720;2022-09-14T02:21:16;3.50;;;2.22;;
34978;SDS011;21185;50.978;13.720;2022-09-14T02:26:22;6.70;;;2.47;;
34978;SDS011;21185;50.978;13.720;2022-09-14T02:42:28;4.20;;;2.55;;
34978;SDS011;21185;50.978;13.720;2022-09-14T02:53:16;7.03;;;2.58;;
34978;SDS011;21185;50.978;13.720;2022-09-14T02:58:40;5.00;;;2.97;;
34978;SDS011;21185;50.978;13.720;2022-09-14T03:03:44;5.57;;;2.90;;
34978;SDS011;21185;50.978;13.720;2022-09-14T03:08:46;6.35;;;3.35;;
34978;SDS011;21185;50.978;13.720;2022-09-14T03:13:48;5.68;;;2.90;;
34978;SDS011;21185;50.978;13.720;2022-09-14T03:18:50;6.00;;;2.88;;
34978;SDS011;21185;50.978;13.720;2022-09-14T03:23:52;5.22;;;3.10;;
34978;SDS011;21185;50.978;13.720;2022-09-14T03:28:56;7.07;;;3.45;;
34978;SDS011;21185;50.978;13.720;2022-09-14T03:34:00;5.75;;;3.00;;
34978;SDS011;21185;50.978;13.720;2022-09-14T03:39:02;6.45;;;3.10;;
34978;SDS011;21185;50.978;13.720;2022-09-14T03:44:04;5.35;;;2.78;;
34978;SDS011;21185;50.978;13.720;2022-09-14T03:49:06;5.72;;;3.22;;
34978;SDS011;21185;50.978;13.720;2022-09-14T03:54:08;10.45;;;2.70;;
34978;SDS011;21185;50.978;13.720;2022-09-14T03:59:09;7.78;;;3.13;;
34978;SDS011;21185;50.978;13.720;2022-09-14T04:04:12;8.20;;;4.05;;
34978;SDS011;21185;50.978;13.720;2022-09-14T04:09:14;7.28;;;2.92;;
34978;SDS011;21185;50.978;13.720;2022-09-14T04:14:16;7.97;;;3.33;;
34978;SDS011;21185;50.978;13.720;2022-09-14T04:19:18;8.88;;;3.42;;
34978;SDS011;21185;50.978;13.720;2022-09-14T04:24:20;4.50;;;2.85;;
34978;SDS011;21185;50.978;13.720;2022-09-14T04:29:25;4.68;;;2.70;;
34978;SDS011;21185;50.978;13.720;2022-09-14T04:34:27;5.00;;;2.75;;
34978;SDS011;21185;50.978;13.720;2022-09-14T04:39:29;6.18;;;3.17;;
34978;SDS011;21185;50.978;13.720;2022-09-14T04:44:31;7.57;;;3.03;;
34978;SDS011;21185;50.978;13.720;2022-09-14T04:49:33;9.15;;;4.00;;
34978;SDS011;21185;50.978;13.720;2022-09-14T04:54:35;5.40;;;3.33;;
34978;SDS011;21185;50.978;13.720;2022-09-14T04:59:37;8.57;;;4.32;;
34978;SDS011;21185;50.978;13.720;2022-09-14T05:04:38;7.18;;;3.47;;
34978;SDS011;21185;50.978;13.720;2022-09-14T05:09:40;6.95;;;3.60;;
34978;SDS011;21185;50.978;13.720;2022-09-14T05:14:42;9.35;;;3.45;;
34978;SDS011;21185;50.978;13.720;2022-09-14T05:19:44;6.72;;;3.95;;
34978;SDS011;21185;50.978;13.720;2022-09-14T05:24:46;7.47;;;3.80;;
34978;SDS011;21185;50.978;13.720;2022-09-14T05:29:48;6.82;;;2.92;;
34978;SDS011;21185;50.978;13.720;2022-09-14T05:34:50;5.78;;;3.13;;
34978;SDS011;21185;50.978;13.720;2022-09-14T05:39:52;6.00;;;3.33;;
34978;SDS011;21185;50.978;13.720;2022-09-14T05:44:54;6.78;;;3.40;;
34978;SDS011;21185;50.978;13.720;2022-09-14T05:49:56;11.32;;;3.85;;
34978;SDS011;21185;50.978;13.720;2022-09-14T05:54:58;7.50;;;3.40;;
34978;SDS011;21185;50.978;13.720;2022-09-14T06:00:00;11.18;;;4.05;;
34978;SDS011;21185;50.978;13.720;2022-09-14T06:05:12;7.60;;;4.63;;
34978;SDS011;21185;50.978;13.720;2022-09-14T06:10:14;10.27;;;4.10;;
34978;SDS011;21185;50.978;13.720;2022-09-14T06:15:16;7.68;;;3.53;;
34978;SDS011;21185;50.978;13.720;2022-09-14T06:20:18;7.72;;;3.35;;
34978;SDS011;21185;50.978;13.720;2022-09-14T06:25:20;9.18;;;3.25;;
34978;SDS011;21185;50.978;13.720;2022-09-14T06:30:22;5.68;;;3.65;;
34978;SDS011;21185;50.978;13.720;2022-09-14T06:35:24;6.80;;;3.58;;
34978;SDS011;21185;50.978;13.720;2022-09-14T06:40:26;9.25;;;3.65;;
34978;SDS011;21185;50.978;13.720;2022-09-14T06:45:29;7.50;;;4.07;;
34978;SDS011;21185;50.978;13.720;2022-09-14T06:50:32;6.10;;;3.85;;
34978;SDS011;21185;50.978;13.720;2022-09-14T06:55:34;10.15;;;3.90;;
34978;SDS011;21185;50.978;13.720;2022-09-14T07:00:36;12.57;;;4.07;;
34978;SDS011;21185;50.978;13.720;2022-09-14T07:05:38;8.65;;;3.80;;
34978;SDS011;21185;50.978;13.720;2022-09-14T07:10:40;6.82;;;4.18;;
34978;SDS011;21185;50.978;13.720;2022-09-14T07:15:47;9.50;;;5.13;;
34978;SDS011;21185;50.978;13.720;2022-09-14T07:20:50;10.65;;;5.40;;
34978;SDS011;21185;50.978;13.720;2022-09-14T07:26:26;12.25;;;6.00;;
34978;SDS011;21185;50.978;13.720;2022-09-14T07:31:29;12.07;;;5.18;;
34978;SDS011;21185;50.978;13.720;2022-09-14T07:36:32;9.93;;;5.28;;
34978;SDS011;21185;50.978;13.720;2022-09-14T07:41:35;12.48;;;5.75;;
34978;SDS011;21185;50.978;13.720;2022-09-14T07:46:39;9.52;;;5.25;;
34978;SDS011;21185;50.978;13.720;2022-09-14T07:51:42;13.13;;;5.43;;
34978;SDS011;21185;50.978;13.720;2022-09-14T07:56:45;9.18;;;5.07;;
34978;SDS011;21185;50.978;13.720;2022-09-14T08:01:47;14.88;;;5.30;;
34978;SDS011;21185;50.978;13.720;2022-09-14T08:06:50;12.77;;;6.18;;
34978;SDS011;21185;50.978;13.720;2022-09-14T08:11:52;12.07;;;5.43;;
34978;SDS011;21185;50.978;13.720;2022-09-14T08:16:54;12.50;;;6.07;;
34978;SDS011;21185;50.978;13.720;2022-09-14T08:21:56;12.27;;;5.78;;
34978;SDS011;21185;50.978;13.720;2022-09-14T08:26:58;12.75;;;5.85;;
34978;SDS011;21185;50.978;13.720;2022-09-14T08:32:00;10.13;;;5.25;;
34978;SDS011;21185;50.978;13.720;2022-09-14T08:37:02;12.52;;;5.65;;
34978;SDS011;21185;50.978;13.720;2022-09-14T08:42:04;8.45;;;5.13;;
34978;SDS011;21185;50.978;13.720;2022-09-14T08:47:10;9.00;;;4.68;;
34978;SDS011;21185;50.978;13.720;2022-09-14T08:52:33;10.70;;;4.95;;
34978;SDS011;21185;50.978;13.720;2022-09-14T08:57:39;10.75;;;4.93;;
34978;SDS011;21185;50.978;13.720;2022-09-14T09:08:32;9.63;;;4.93;;
34978;SDS011;21185;50.978;13.720;2022-09-14T09:13:39;8.00;;;4.15;;
34978;SDS011;21185;50.978;13.720;2022-09-14T09:18:44;7.60;;;4.70;;
34978;SDS011;21185;50.978;13.720;2022-09-14T09:23:50;7.38;;;4.35;;
34978;SDS011;21185;50.978;13.720;2022-09-14T09:28:57;9.80;;;5.03;;
34978;SDS011;21185;50.978;13.720;2022-09-14T09:34:00;12.93;;;4.88;;
34978;SDS011;21185;50.978;13.720;2022-09-14T09:39:04;6.57;;;4.20;;
34978;SDS011;21185;50.978;13.720;2022-09-14T09:44:07;9.48;;;5.03;;
34978;SDS011;21185;50.978;13.720;2022-09-14T09:49:29;12.68;;;5.65;;
34978;SDS011;21185;50.978;13.720;2022-09-14T09:54:33;11.73;;;5.93;;
34978;SDS011;21185;50.978;13.720;2022-09-14T09:59:38;14.98;;;6.85;;
34978;SDS011;21185;50.978;13.720;2022-09-14T10:04:54;14.45;;;7.07;;
34978;SDS011;21185;50.978;13.720;2022-09-14T10:10:21;12.45;;;7.57;;
34978;SDS011;21185;50.978;13.720;2022-09-14T10:15:30;12.95;;;7.10;;
34978;SDS011;21185;50.978;13.720;2022-09-14T10:20:35;15.05;;;6.85;;
34978;SDS011;21185;50.978;13.720;2022-09-14T10:25:38;15.15;;;6.78;;
34978;SDS011;21185;50.978;13.720;2022-09-14T10:30:45;13.02;;;7.50;;
34978;SDS011;21185;50.978;13.720;2022-09-14T10:46:29;13.55;;;7.57;;
34978;SDS011;21185;50.978;13.720;2022-09-14T11:13:03;12.90;;;7.30;;
34978;SDS011;21185;50.978;13.720;2022-09-14T11:18:45;15.32;;;7.32;;
34978;SDS011;21185;50.978;13.720;2022-09-14T11:23:53;10.65;;;5.97;;
34978;SDS011;21185;50.978;13.720;2022-09-14T11:34:35;13.02;;;6.90;;
34978;SDS011;21185;50.978;13.720;2022-09-14T11:45:15;16.38;;;7.50;;
34978;SDS011;21185;50.978;13.720;2022-09-14T11:50:24;13.00;;;7.32;;
34978;SDS011;21185;50.978;13.720;2022-09-14T11:55:28;13.05;;;7.05;;
34978;SDS011;21185;50.978;13.720;2022-09-14T12:05:51;12.25;;;7.13;;
34978;SDS011;21185;50.978;13.720;2022-09-14T12:11:00;16.83;;;7.43;;
34978;SDS011;21185;50.978;13.720;2022-09-14T12:16:25;14.18;;;6.97;;
34978;SDS011;21185;50.978;13.720;2022-09-14T12:21:26;14.82;;;8.05;;
34978;SDS011;21185;50.978;13.720;2022-09-14T12:26:29;10.88;;;6.50;;
34978;SDS011;21185;50.978;13.720;2022-09-14T12:31:38;13.88;;;6.40;;
34978;SDS011;21185;50.978;13.720;2022-09-14T12:37:02;12.68;;;6.10;;
34978;SDS011;21185;50.978;13.720;2022-09-14T12:42:32;12.65;;;6.05;;
34978;SDS011;21185;50.978;13.720;2022-09-14T13:03:38;12.30;;;6.55;;
34978;SDS011;21185;50.978;13.720;2022-09-14T13:08:47;10.15;;;5.95;;
34978;SDS011;21185;50.978;13.720;2022-09-14T13:13:53;10.10;;;6.18;;
34978;SDS011;21185;50.978;13.720;2022-09-14T13:19:00;9.35;;;5.82;;
34978;SDS011;21185;50.978;13.720;2022-09-14T13:24:17;9.18;;;5.03;;
34978;SDS011;21185;50.978;13.720;2022-09-14T13:29:26;11.38;;;5.30;;
34978;SDS011;21185;50.978;13.720;2022-09-14T13:34:30;9.32;;;5.72;;
34978;SDS011;21185;50.978;13.720;2022-09-14T13:39:36;13.50;;;5.40;;
34978;SDS011;21185;50.978;13.720;2022-09-14T13:44:41;9.07;;;5.60;;
34978;SDS011;21185;50.978;13.720;2022-09-14T13:49:48;10.43;;;5.85;;
34978;SDS011;21185;50.978;13.720;2022-09-14T13:54:53;18.02;;;5.78;;
34978;SDS011;21185;50.978;13.720;2022-09-14T14:00:15;11.75;;;6.03;;
34978;SDS011;21185;50.978;13.720;2022-09-14T14:05:27;14.25;;;6.30;;
34978;SDS011;21185;50.978;13.720;2022-09-14T14:10:36;12.05;;;6.45;;
34978;SDS011;21185;50.978;13.720;2022-09-14T14:15:41;10.15;;;5.78;;
34978;SDS011;21185;50.978;13.720;2022-09-14T14:20:44;15.93;;;6.53;;
34978;SDS011;21185;50.978;13.720;2022-09-14T14:25:47;11.65;;;5.95;;
34978;SDS011;21185;50.978;13.720;2022-09-14T14:30:55;14.93;;;6.05;;
34978;SDS011;21185;50.978;13.720;2022-09-14T14:35:58;14.40;;;6.32;;
34978;SDS011;21185;50.978;13.720;2022-09-14T14:41:00;10.23;;;6.13;;
34978;SDS011;21185;50.978;13.720;2022-09-14T14:46:03;12.18;;;6.45;;
34978;SDS011;21185;50.978;13.720;2022-09-14T14:51:11;13.27;;;6.43;;
34978;SDS011;21185;50.978;13.720;2022-09-14T14:56:15;14.90;;;6.10;;
34978;SDS011;21185;50.978;13.720;2022-09-14T15:01:17;12.68;;;6.18;;
34978;SDS011;21185;50.978;13.720;2022-09-14T15:06:20;12.80;;;6.18;;
34978;SDS011;21185;50.978;13.720;2022-09-14T15:11:24;13.73;;;6.57;;
34978;SDS011;21185;50.978;13.720;2022-09-14T15:16:26;11.88;;;6.20;;
34978;SDS011;21185;50.978;13.720;2022-09-14T15:21:28;12.73;;;6.13;;
34978;SDS011;21185;50.978;13.720;2022-09-14T15:26:30;13.32;;;5.55;;
34978;SDS011;21185;50.978;13.720;2022-09-14T15:31:31;14.13;;;6.32;;
34978;SDS011;21185;50.978;13.720;2022-09-14T15:41:43;12.07;;;6.82;;
34978;SDS011;21185;50.978;13.720;2022-09-14T15:46:45;11.43;;;6.07;;
34978;SDS011;21185;50.978;13.720;2022-09-14T15:51:48;10.43;;;5.75;;
34978;SDS011;21185;50.978;13.720;2022-09-14T15:56:54;9.55;;;5.00;;
34978;SDS011;21185;50.978;13.720;2022-09-14T16:02:01;11.57;;;6.22;;
34978;SDS011;21185;50.978;13.720;2022-09-14T16:07:05;11.65;;;6.47;;
34978;SDS011;21185;50.978;13.720;2022-09-14T16:12:10;9.98;;;5.63;;
34978;SDS011;21185;50.978;13.720;2022-09-14T16:17:13;9.43;;;5.53;;
34978;SDS011;21185;50.978;13.720;2022-09-14T16:22:16;10.85;;;5.82;;
34978;SDS011;21185;50.978;13.720;2022-09-14T16:27:18;11.85;;;6.03;;
34978;SDS011;21185;50.978;13.720;2022-09-14T16:32:19;10.90;;;6.75;;
34978;SDS011;21185;50.978;13.720;2022-09-14T16:37:22;12.10;;;6.40;;
34978;SDS011;21185;50.978;13.720;2022-09-14T16:42:24;11.80;;;6.68;;
34978;SDS011;21185;50.978;13.720;2022-09-14T16:47:26;12.18;;;6.22;;
34978;SDS011;21185;50.978;13.720;2022-09-14T16:52:28;10.77;;;5.72;;
34978;SDS011;21185;50.978;13.720;2022-09-14T16:57:32;12.32;;;6.07;;
34978;SDS011;21185;50.978;13.720;2022-09-14T17:02:34;12.77;;;6.68;;
34978;SDS011;21185;50.978;13.720;2022-09-14T17:07:36;13.73;;;5.72;;
34978;SDS011;21185;50.978;13.720;2022-09-14T17:12:38;12.43;;;5.68;;
34978;SDS011;21185;50.978;13.720;2022-09-14T17:17:39;12.57;;;6.22;;
34978;SDS011;21185;50.978;13.720;2022-09-14T17:22:44;15.88;;;6.10;;
34978;SDS011;21185;50.978;13.720;2022-09-14T17:27:46;14.65;;;6.88;;
34978;SDS011;21185;50.978;13.720;2022-09-14T17:32:48;11.65;;;6.18;;
34978;SDS011;21185;50.978;13.720;2022-09-14T17:37:50;12.45;;;6.70;;
34978;SDS011;21185;50.978;13.720;2022-09-14T17:42:51;11.88;;;6.30;;
34978;SDS011;21185;50.978;13.720;2022-09-14T17:47:53;11.93;;;6.03;;
34978;SDS011;21185;50.978;13.720;2022-09-14T17:52:55;10.25;;;5.80;;
34978;SDS011;21185;50.978;13.720;2022-09-14T17:57:57;11.38;;;6.28;;
34978;SDS011;21185;50.978;13.720;2022-09-14T18:02:59;13.65;;;6.85;;
34978;SDS011;21185;50.978;13.720;2022-09-14T18:08:03;8.80;;;4.55;;
34978;SDS011;21185;50.978;13.720;2022-09-14T18:13:06;4.82;;;3.28;;
34978;SDS011;21185;50.978;13.720;2022-09-14T18:18:08;4.57;;;2.40;;
34978;SDS011;21185;50.978;13.720;2022-09-14T18:23:09;4.75;;;2.67;;
34978;SDS011;21185;50.978;13.720;2022-09-14T18:28:11;3.63;;;1.90;;
34978;SDS011;21185;50.978;13.720;2022-09-14T18:33:13;2.75;;;1.83;;
34978;SDS011;21185;50.978;13.720;2022-09-14T18:38:15;2.53;;;1.50;;
34978;SDS011;21185;50.978;13.720;2022-09-14T18:43:17;2.08;;;1.40;;
34978;SDS011;21185;50.978;13.720;2022-09-14T18:48:19;3.15;;;2.20;;
34978;SDS011;21185;50.978;13.720;2022-09-14T18:53:21;3.58;;;1.90;;
34978;SDS011;21185;50.978;13.720;2022-09-14T18:58:23;1.80;;;1.30;;
34978;SDS011;21185;50.978;13.720;2022-09-14T19:03:24;1.75;;;1.02;;
34978;SDS011;21185;50.978;13.720;2022-09-14T19:08:26;1.98;;;1.13;;
34978;SDS011;21185;50.978;13.720;2022-09-14T19:13:28;0.73;;;0.50;;
34978;SDS011;21185;50.978;13.720;2022-09-14T19:18:30;0.73;;;0.40;;
34978;SDS011;21185;50.978;13.720;2022-09-14T19:23:33;0.38;;;0.38;;
34978;SDS011;21185;50.978;13.720;2022-09-14T19:28:35;1.42;;;0.73;;
34978;SDS011;21185;50.978;13.720;2022-09-14T19:33:38;0.70;;;0.40;;
34978;SDS011;21185;50.978;13.720;2022-09-14T19:38:46;0.65;;;0.55;;
34978;SDS011;21185;50.978;13.720;2022-09-14T19:43:49;0.70;;;0.50;;
34978;SDS011;21185;50.978;13.720;2022-09-14T19:48:51;0.40;;;0.40;;
34978;SDS011;21185;50.978;13.720;2022-09-14T19:53:54;0.95;;;0.40;;
34978;SDS011;21185;50.978;13.720;2022-09-14T19:58:58;1.08;;;0.60;;
34978;SDS011;21185;50.978;13.720;2022-09-14T20:04:02;1.00;;;0.60;;
34978;SDS011;21185;50.978;13.720;2022-09-14T20:09:06;0.30;;;0.30;;
34978;SDS011;21185;50.978;13.720;2022-09-14T20:14:11;1.85;;;0.60;;
34978;SDS011;21185;50.978;13.720;2022-09-14T20:19:18;1.23;;;0.50;;
34978;SDS011;21185;50.978;13.720;2022-09-14T20:24:22;1.30;;;0.50;;
34978;SDS011;21185;50.978;13.720;2022-09-14T20:29:27;0.40;;;0.40;;
34978;SDS011;21185;50.978;13.720;2022-09-14T20:34:31;0.40;;;0.40;;
34978;SDS011;21185;50.978;13.720;2022-09-14T20:39:33;0.25;;;0.25;;
34978;SDS011;21185;50.978;13.720;2022-09-14T20:44:38;0.63;;;0.40;;
34978;SDS011;21185;50.978;13.720;2022-09-14T20:49:40;0.93;;;0.60;;
34978;SDS011;21185;50.978;13.720;2022-09-14T20:54:42;1.17;;;0.80;;
34978;SDS011;21185;50.978;13.720;2022-09-14T20:59:44;0.95;;;0.70;;
34978;SDS011;21185;50.978;13.720;2022-09-14T21:04:45;1.30;;;0.80;;
34978;SDS011;21185;50.978;13.720;2022-09-14T21:09:47;0.90;;;0.68;;
34978;SDS011;21185;50.978;13.720;2022-09-14T21:14:52;1.65;;;1.05;;
34978;SDS011;21185;50.978;13.720;2022-09-14T21:19:54;1.08;;;0.80;;
34978;SDS011;21185;50.978;13.720;2022-09-14T21:24:56;1.27;;;0.85;;
34978;SDS011;21185;50.978;13.720;2022-09-14T21:29:58;1.50;;;0.70;;
34978;SDS011;21185;50.978;13.720;2022-09-14T21:35:00;0.85;;;0.57;;
34978;SDS011;21185;50.978;13.720;2022-09-14T21:40:02;1.25;;;0.80;;
34978;SDS011;21185;50.978;13.720;2022-09-14T21:45:04;4.30;;;0.80;;
34978;SDS011;21185;50.978;13.720;2022-09-14T21:50:06;0.70;;;0.55;;
34978;SDS011;21185;50.978;13.720;2022-09-14T21:55:09;0.52;;;0.45;;
34978;SDS011;21185;50.978;13.720;2022-09-14T22:00:11;0.55;;;0.43;;
34978;SDS011;21185;50.978;13.720;2022-09-14T22:05:13;0.60;;;0.50;;
34978;SDS011;21185;50.978;13.720;2022-09-14T22:10:15;0.50;;;0.40;;
34978;SDS011;21185;50.978;13.720;2022-09-14T22:15:17;1.08;;;0.40;;
34978;SDS011;21185;50.978;13.720;2022-09-14T22:20:19;0.40;;;0.40;;
34978;SDS011;21185;50.978;13.720;2022-09-14T22:25:20;1.27;;;0.65;;
34978;SDS011;21185;50.978;13.720;2022-09-14T22:30:25;1.05;;;0.93;;
34978;SDS011;21185;50.978;13.720;2022-09-14T22:35:27;1.50;;;1.10;;
34978;SDS011;21185;50.978;13.720;2022-09-14T22:40:28;1.35;;;0.90;;
34978;SDS011;21185;50.978;13.720;2022-09-14T22:45:30;2.00;;;0.95;;
34978;SDS011;21185;50.978;13.720;2022-09-14T22:50:32;4.53;;;1.13;;
34978;SDS011;21185;50.978;13.720;2022-09-14T22:55:37;1.40;;;0.90;;
34978;SDS011;21185;50.978;13.720;2022-09-14T23:00:40;1.63;;;1.17;;
34978;SDS011;21185;50.978;13.720;2022-09-14T23:05:53;1.20;;;0.90;;
34978;SDS011;21185;50.978;13.720;2022-09-14T23:11:09;1.70;;;1.23;;
34978;SDS011;21185;50.978;13.720;2022-09-14T23:16:16;1.63;;;1.05;;
34978;SDS011;21185;50.978;13.720;2022-09-14T23:21:20;2.22;;;1.20;;
34978;SDS011;21185;50.978;13.720;2022-09-14T23:26:22;1.40;;;1.10;;
34978;SDS011;21185;50.978;13.720;2022-09-14T23:31:26;1.85;;;1.38;;
34978;SDS011;21185;50.978;13.720;2022-09-14T23:36:29;2.55;;;1.80;;
34978;SDS011;21185;50.978;13.720;2022-09-14T23:41:31;3.42;;;2.05;;
34978;SDS011;21185;50.978;13.720;2022-09-14T23:46:33;2.88;;;1.50;;
34978;SDS011;21185;50.978;13.720;2022-09-14T23:51:35;3.33;;;1.50;;
34978;SDS011;21185;50.978;13.720;2022-09-14T23:56:37;4.00;;;2.08;;
